Khanty Mansiysk Airport
USHH : now visible

Airfield :











YOU CAN JOIN US ON...

 
LOGIN :

Register | Disclaimer

   EN    FR    IT 

 









Legend :    VFR   Marginal VFR   IFR   Intensive IFR   Very Intensive IFR
Visi :
Ceiling :
>= 8 km
>= 3000ft
5 to 8 km
1000 to 3000 ft
1500m to 5 km
500 to 1000 ft
800 to 1500m
200 to 500 ft
< 800m
< 200 ft
Symbols :   Thunderstorms  Fog  Heavy snow  Heavy precipitations  Wind > 20 kt






- Airport Elevation : 76 ft
- IATA code : HMA


USHH - Khanty Mansiysk

CURRENT METAR :
  • 111730Z 28003G09MPS 9999 FEW040CB 21/20 Q1005 R24/290055 NOSIG

EXPIRED METARs :
  • 111700Z 26003MPS 9999 SCT040CB 20/20 Q1004 R24/290055 TEMPO 3000 -TSRA BKN011CB
  • 111630Z 27003MPS 9999 SCT033CB 20/20 Q1004 R24/290055 TEMPO 3000 -TSRA BKN011CB
  • 111600Z 27003MPS 9999 SCT033CB 20/20 Q1004 R24/290055 TEMPO 3000 -TSRA BKN011CB
  • 111530Z 23002MPS 9999 SCT036CB 20/20 Q1004 R24/290055 NOSIG
  • 111500Z 21003MPS 9999 SCT040CB 20/20 Q1004 R24/290055 NOSIG

TAF TAF USHH
Valid from the 11 at 18:00 until the 12 at 18:00 UTC


111657Z 1118/1218 32007G16MPS 9999 SCT020CB
TEMPO 1118/1203 27005MPS 5000 -SHRA BR FEW004 BKN016CB
TEMPO 1203/1218 -SHRA BKN017CB
BECMG 1212/1214 22003G10MPS
USHH FIR / Asia



MET'MAP, your aeronautical weather chart ! - Copyright ORBIFLY December 2007 - Disclaimer

ORBIFLY MET'MAP TEAM :

Programming & Development : Alexandra Zaïnal
Concept & original design : Baudouin d'Aumeries
Assistance for programming : Marc-Olivier Méhu
Technical & hardware support : Manuel Goepfert

Contact : metmap@orbifly.com




SOURCES & CREDITS :

   NOAA       Earth
Advisory